Time;durP1;ratioP1;P1;durP2;ratioP2;P2;SDS_P1;SDS_P2;PMS_P1;PMS_P2;Temp;Humidity;BMP_temperature;BMP_pressure;BME280_temperature;BME280_humidity;BME280_pressure;Samples;Min_cycle;Max_cycle;Signal;HPM_P1;HPM_P2
2024/03/29 00:01:33;;;;;;;5.85;4.40;;;5.20;99.90;;;;;;5054959;28;20052;-81
2024/03/29 00:04:01;;;;;;;7.72;4.63;;;5.10;99.90;;;;;;5052618;28;20060;-79
2024/03/29 00:06:27;;;;;;;6.13;4.03;;;5.10;99.90;;;;;;5036306;28;20053;-80
2024/03/29 00:08:55;;;;;;;5.43;3.15;;;5.00;99.90;;;;;;5035213;28;20087;-80
2024/03/29 00:11:21;;;;;;;5.15;3.55;;;5.00;99.90;;;;;;5036437;28;20052;-79
2024/03/29 00:13:46;;;;;;;5.40;3.00;;;4.90;99.90;;;;;;5037639;28;20056;-80
2024/03/29 00:16:14;;;;;;;2.97;2.67;;;4.90;99.90;;;;;;5038138;28;20422;-81
2024/03/29 00:18:40;;;;;;;3.80;2.85;;;4.90;99.90;;;;;;5053296;28;20059;-79
2024/03/29 00:21:06;;;;;;;4.35;3.10;;;4.80;99.90;;;;;;5054167;28;20077;-80
2024/03/29 00:23:32;;;;;;;4.20;3.70;;;4.70;99.90;;;;;;5054425;28;20057;-79
2024/03/29 00:25:58;;;;;;;5.20;3.33;;;4.70;99.90;;;;;;5038178;28;20056;-79
2024/03/29 00:28:24;;;;;;;6.55;3.78;;;4.70;99.90;;;;;;5037942;28;20053;-79
2024/03/29 00:30:50;;;;;;;8.93;3.47;;;4.60;99.90;;;;;;5038164;28;20109;-80
2024/03/29 00:33:16;;;;;;;5.45;3.92;;;4.60;99.90;;;;;;5037921;28;20062;-79
2024/03/29 00:35:42;;;;;;;4.63;3.30;;;4.60;99.90;;;;;;5037992;28;20053;-79
2024/03/29 00:38:08;;;;;;;4.75;4.00;;;4.50;99.90;;;;;;5037925;28;20108;-80
2024/03/29 00:40:36;;;;;;;4.90;3.30;;;4.50;99.90;;;;;;5054759;28;20060;-79
2024/03/29 00:43:02;;;;;;;3.20;2.72;;;4.50;99.90;;;;;;5038121;28;20068;-79
2024/03/29 00:45:28;;;;;;;3.45;2.75;;;4.50;99.90;;;;;;5054706;28;20053;-79
2024/03/29 00:47:54;;;;;;;5.40;3.15;;;4.40;99.90;;;;;;5054652;28;20049;-79
2024/03/29 00:50:20;;;;;;;4.68;2.30;;;4.40;99.90;;;;;;5038226;28;20056;-79
2024/03/29 00:52:48;;;;;;;7.40;2.95;;;4.30;99.90;;;;;;5054229;28;20084;-79
2024/03/29 00:55:14;;;;;;;3.67;2.90;;;4.30;99.90;;;;;;5033152;28;20057;-79
2024/03/29 00:57:40;;;;;;;7.35;3.33;;;4.20;99.90;;;;;;5037206;28;20045;-80
2024/03/29 01:00:06;;;;;;;3.47;2.70;;;4.20;99.90;;;;;;5053891;28;20435;-79
2024/03/29 01:02:32;;;;;;;4.32;2.92;;;4.20;99.90;;;;;;5054919;28;20056;-79
2024/03/29 01:04:58;;;;;;;3.05;2.50;;;4.20;99.90;;;;;;5054197;28;20060;-80
2024/03/29 01:07:24;;;;;;;4.50;2.97;;;4.20;99.90;;;;;;5054761;28;20079;-79
2024/03/29 01:09:50;;;;;;;3.47;2.75;;;4.10;99.90;;;;;;5037671;28;20060;-79
2024/03/29 01:12:16;;;;;;;2.95;2.67;;;4.10;99.90;;;;;;5037433;28;20056;-80
2024/03/29 01:14:42;;;;;;;4.00;2.80;;;4.10;99.90;;;;;;5038615;28;20117;-79
2024/03/29 01:17:08;;;;;;;3.00;2.70;;;4.00;99.90;;;;;;5041410;28;20053;-79
2024/03/29 01:19:37;;;;;;;3.67;3.22;;;4.00;99.90;;;;;;5057479;28;20056;-79
2024/03/29 01:22:04;;;;;;;5.03;3.13;;;3.90;99.90;;;;;;5040973;28;20060;-79
2024/03/29 01:24:30;;;;;;;6.10;3.15;;;3.90;99.90;;;;;;5041380;28;20401;-79
2024/03/29 01:26:56;;;;;;;3.42;2.90;;;3.90;99.90;;;;;;5057678;28;20052;-79
2024/03/29 01:29:24;;;;;;;3.85;3.00;;;3.80;99.90;;;;;;5040995;28;20056;-79
2024/03/29 01:31:50;;;;;;;6.68;3.50;;;3.80;99.90;;;;;;5040902;28;20469;-79
2024/03/29 01:34:16;;;;;;;7.95;3.85;;;3.80;99.90;;;;;;5040705;28;20151;-79
2024/03/29 01:36:43;;;;;;;6.65;3.78;;;3.80;99.90;;;;;;5040702;28;20044;-79
2024/03/29 01:39:13;;;;;;;6.38;3.78;;;3.80;99.90;;;;;;5057267;28;20044;-79
2024/03/29 01:41:39;;;;;;;6.10;3.72;;;3.80;99.90;;;;;;5040596;28;20496;-80
2024/03/29 01:44:05;;;;;;;4.60;3.92;;;3.70;99.90;;;;;;5040887;28;20056;-79
2024/03/29 01:46:35;;;;;;;5.50;4.00;;;3.70;99.90;;;;;;5057456;28;20127;-79
2024/03/29 01:49:04;;;;;;;7.78;4.32;;;3.70;99.90;;;;;;5027337;28;20359;-79
2024/03/29 01:51:32;;;;;;;5.75;3.85;;;3.70;99.90;;;;;;5040212;28;20110;-79
2024/03/29 01:53:59;;;;;;;6.70;3.83;;;3.70;99.90;;;;;;5057162;28;20048;-79
2024/03/29 01:56:28;;;;;;;7.72;4.38;;;3.60;99.90;;;;;;5040439;28;20048;-79
2024/03/29 01:58:57;;;;;;;7.28;4.38;;;3.60;99.90;;;;;;5047328;28;20106;-79
2024/03/29 02:01:26;;;;;;;4.47;3.38;;;3.60;99.90;;;;;;5056938;28;20464;-79
2024/03/29 02:03:52;;;;;;;5.55;3.72;;;3.60;99.90;;;;;;5037159;28;20113;-79
2024/03/29 02:06:21;;;;;;;5.45;3.42;;;3.60;99.90;;;;;;5078049;28;20064;-79
2024/03/29 02:08:51;;;;;;;5.85;3.72;;;3.60;99.90;;;;;;5040575;28;20060;-79
2024/03/29 02:11:18;;;;;;;6.28;3.80;;;3.60;99.90;;;;;;5056474;28;20105;-78
2024/03/29 02:13:45;;;;;;;4.85;4.05;;;3.50;99.90;;;;;;5040558;28;20052;-79
2024/03/29 02:16:11;;;;;;;4.18;3.45;;;3.50;99.90;;;;;;5057040;28;20185;-79
2024/03/29 02:18:36;;;;;;;6.28;4.25;;;3.50;99.90;;;;;;5038579;28;20087;-79
2024/03/29 02:21:03;;;;;;;4.70;3.53;;;3.50;99.90;;;;;;5039970;28;20044;-79
2024/03/29 02:23:32;;;;;;;6.85;4.25;;;3.40;99.90;;;;;;5040579;28;20060;-79
2024/03/29 02:25:58;;;;;;;6.85;3.45;;;3.40;99.90;;;;;;5055828;28;20056;-79
2024/03/29 02:28:25;;;;;;;5.63;3.53;;;3.40;99.90;;;;;;5056740;28;20067;-79
2024/03/29 02:30:51;;;;;;;6.90;3.95;;;3.40;99.90;;;;;;5056573;28;20056;-78
2024/03/29 02:33:17;;;;;;;4.95;3.75;;;3.40;99.90;;;;;;5039705;28;20060;-79
2024/03/29 02:35:43;;;;;;;6.05;4.47;;;3.40;99.90;;;;;;5081073;28;20122;-79
2024/03/29 02:38:09;;;;;;;6.80;4.53;;;3.30;99.90;;;;;;5056075;28;20528;-80
2024/03/29 02:40:34;;;;;;;6.43;4.70;;;3.30;99.90;;;;;;5056267;28;20127;-79
2024/03/29 02:43:00;;;;;;;6.63;4.18;;;3.20;99.90;;;;;;5055916;28;20052;-79
2024/03/29 02:45:26;;;;;;;4.63;4.18;;;3.20;99.90;;;;;;5039154;28;20052;-79
2024/03/29 02:47:52;;;;;;;10.07;4.40;;;3.10;99.90;;;;;;5039676;28;20123;-79
2024/03/29 02:50:20;;;;;;;5.97;4.40;;;3.10;99.90;;;;;;5039357;28;20052;-79
2024/03/29 02:52:46;;;;;;;7.35;5.35;;;3.10;99.90;;;;;;5055576;28;20063;-79
2024/03/29 02:55:12;;;;;;;5.32;4.22;;;3.10;99.90;;;;;;5055924;28;20052;-79
2024/03/29 02:57:38;;;;;;;8.93;4.90;;;3.00;99.90;;;;;;5056006;28;20045;-79
2024/03/29 03:00:11;;;;;;;7.05;4.97;;;3.00;99.90;;;;;;5055789;28;20056;-78
2024/03/29 03:02:41;;;;;;;7.43;5.10;;;3.00;99.90;;;;;;5039096;28;20060;-79
2024/03/29 03:05:07;;;;;;;6.38;4.68;;;3.00;99.90;;;;;;5063731;28;20048;-79
2024/03/29 03:13:05;;;;;;;13.27;9.13;;;;;;;;;;5056034;28;20053;-79
2024/03/29 03:15:33;;;;;;;17.30;10.27;;;3.10;99.90;;;;;;5055574;28;20114;-78
2024/03/29 03:17:59;;;;;;;14.27;9.93;;;3.10;99.90;;;;;;5038275;28;20049;-79
2024/03/29 03:20:30;;;;;;;20.65;11.32;;;3.20;99.90;;;;;;5038389;28;20582;-79
2024/03/29 03:22:57;;;;;;;54.38;12.05;;;3.20;99.90;;;;;;5052767;28;20045;-79
2024/03/29 03:25:25;;;;;;;27.52;11.48;;;3.30;99.90;;;;;;5055694;28;20428;-79
2024/03/29 03:27:51;;;;;;;15.85;11.52;;;3.30;99.90;;;;;;5055503;28;20466;-79
2024/03/29 03:30:17;;;;;;;20.65;10.98;;;3.30;99.90;;;;;;5037965;28;20078;-79
2024/03/29 03:32:44;;;;;;;26.92;10.43;;;3.30;99.90;;;;;;5054645;28;20056;-79
2024/03/29 03:35:10;;;;;;;15.52;11.10;;;3.40;99.90;;;;;;5038008;28;20048;-79
2024/03/29 03:37:36;;;;;;;23.42;10.85;;;3.40;99.90;;;;;;5054410;28;20052;-78
2024/03/29 03:40:04;;;;;;;13.05;9.90;;;3.40;99.90;;;;;;5038600;28;20080;-79
2024/03/29 03:42:30;;;;;;;19.05;11.07;;;3.40;99.90;;;;;;5054810;28;20063;-79
2024/03/29 03:44:58;;;;;;;20.75;12.50;;;3.50;99.90;;;;;;5038051;28;20052;-79
2024/03/29 03:47:27;;;;;;;27.15;13.10;;;3.50;99.90;;;;;;5053647;28;20480;-79
2024/03/29 03:49:53;;;;;;;16.63;12.80;;;3.50;99.90;;;;;;5038295;28;20063;-79
2024/03/29 03:52:18;;;;;;;39.42;11.45;;;3.50;99.90;;;;;;5038364;28;20119;-79
2024/03/29 03:54:46;;;;;;;24.50;13.05;;;3.50;99.90;;;;;;5055074;28;20056;-78
2024/03/29 03:57:12;;;;;;;32.53;12.48;;;3.50;99.90;;;;;;5038161;28;20044;-79
2024/03/29 03:59:43;;;;;;;18.20;12.20;;;3.50;99.90;;;;;;5038381;28;20057;-78
2024/03/29 04:02:11;;;;;;;19.50;11.95;;;3.60;99.90;;;;;;5025639;28;20052;-79
2024/03/29 04:04:39;;;;;;;17.20;13.25;;;3.60;99.90;;;;;;5038831;28;20601;-78
2024/03/29 04:07:05;;;;;;;27.13;12.82;;;3.60;99.90;;;;;;5051866;28;20428;-78
2024/03/29 04:09:33;;;;;;;23.42;14.35;;;3.60;99.90;;;;;;5038751;28;20060;-79
2024/03/29 04:11:59;;;;;;;24.00;14.40;;;3.60;99.90;;;;;;5038230;28;20049;-78
2024/03/29 04:14:25;;;;;;;18.40;12.02;;;3.60;99.90;;;;;;5038387;28;20175;-78
2024/03/29 04:16:51;;;;;;;16.80;12.10;;;3.60;99.90;;;;;;5081510;28;20063;-79
2024/03/29 04:19:19;;;;;;;17.65;11.32;;;3.60;99.90;;;;;;5028086;28;20045;-79
2024/03/29 04:21:45;;;;;;;13.38;10.45;;;3.60;99.90;;;;;;5055195;28;20056;-80
2024/03/29 04:24:11;;;;;;;14.77;10.00;;;3.60;99.90;;;;;;5037878;28;20083;-80
2024/03/29 04:26:38;;;;;;;20.98;10.30;;;3.60;99.90;;;;;;5080503;28;20056;-80
2024/03/29 04:29:04;;;;;;;21.85;11.70;;;3.50;99.90;;;;;;5037860;28;20091;-80
2024/03/29 04:31:30;;;;;;;27.17;11.23;;;3.50;99.90;;;;;;5038055;28;20048;-80
2024/03/29 04:33:56;;;;;;;22.63;11.27;;;3.50;99.90;;;;;;5038251;28;20080;-80
2024/03/29 04:36:22;;;;;;;58.97;11.77;;;3.50;99.90;;;;;;5054363;28;20075;-80
2024/03/29 04:38:50;;;;;;;14.30;10.40;;;3.40;99.90;;;;;;5037963;28;20066;-80
2024/03/29 04:41:19;;;;;;;15.00;10.98;;;3.50;99.90;;;;;;5051847;28;20369;-80
2024/03/29 04:43:45;;;;;;;13.88;10.63;;;3.40;99.90;;;;;;5037944;28;20064;-80
2024/03/29 04:46:13;;;;;;;14.75;11.50;;;3.40;99.90;;;;;;5053906;28;20045;-80
2024/03/29 04:48:41;;;;;;;19.77;12.65;;;3.50;99.90;;;;;;5068280;28;20056;-80
2024/03/29 04:51:07;;;;;;;17.42;12.73;;;3.50;99.90;;;;;;5058049;28;20099;-80
2024/03/29 04:53:36;;;;;;;17.63;11.60;;;3.50;99.90;;;;;;5041716;28;20048;-80
2024/03/29 04:56:05;;;;;;;36.97;12.75;;;3.40;99.90;;;;;;5058130;28;20044;-79
2024/03/29 04:58:32;;;;;;;23.23;12.10;;;3.40;99.90;;;;;;5058234;28;20052;-79
2024/03/29 05:00:58;;;;;;;23.75;12.23;;;3.40;99.90;;;;;;5073545;28;20896;-80
2024/03/29 05:03:24;;;;;;;39.72;12.98;;;3.40;99.90;;;;;;5041585;28;20072;-80
2024/03/29 05:05:51;;;;;;;37.60;12.38;;;3.40;99.90;;;;;;5057582;28;20059;-80
2024/03/29 05:08:18;;;;;;;27.83;14.00;;;3.40;99.90;;;;;;5041189;28;20492;-80
2024/03/29 05:10:44;;;;;;;30.40;13.23;;;3.40;99.90;;;;;;5057959;28;20056;-80
2024/03/29 05:13:12;;;;;;;20.15;12.48;;;3.40;99.90;;;;;;5057903;28;20106;-80
2024/03/29 05:15:39;;;;;;;15.45;12.15;;;3.40;99.90;;;;;;5041125;28;20055;-80
2024/03/29 05:18:05;;;;;;;122.05;15.40;;;3.40;99.90;;;;;;5057218;28;20468;-79
2024/03/29 05:20:31;;;;;;;15.80;11.43;;;3.40;99.90;;;;;;5057706;28;20377;-78
2024/03/29 05:23:00;;;;;;;56.47;12.95;;;3.40;99.90;;;;;;5040925;28;20476;-79
2024/03/29 05:25:27;;;;;;;54.38;13.85;;;3.40;99.90;;;;;;5057427;28;20472;-78
2024/03/29 05:27:53;;;;;;;19.88;13.23;;;3.40;99.90;;;;;;5057069;28;20052;-78
2024/03/29 05:30:19;;;;;;;36.85;13.25;;;3.40;99.90;;;;;;5057692;28;20083;-79
2024/03/29 05:32:45;;;;;;;25.55;14.52;;;3.50;99.90;;;;;;5040626;28;20113;-78
2024/03/29 05:35:11;;;;;;;30.10;14.18;;;3.50;99.90;;;;;;5040961;28;20382;-78
2024/03/29 05:37:37;;;;;;;22.85;14.45;;;3.50;99.90;;;;;;5040230;28;20064;-79
2024/03/29 05:40:09;;;;;;;45.05;14.63;;;3.50;99.90;;;;;;5055523;28;20056;-79
2024/03/29 05:42:36;;;;;;;36.75;13.45;;;3.60;99.90;;;;;;5053930;28;20063;-79
2024/03/29 05:45:29;;;;;;;40.50;14.05;;;3.60;99.90;;;;;;5056321;28;20475;-79
2024/03/29 05:47:56;;;;;;;25.77;13.05;;;3.60;99.90;;;;;;5040573;28;20053;-78
2024/03/29 05:50:23;;;;;;;20.80;12.95;;;3.70;99.90;;;;;;5052919;28;20465;-78
2024/03/29 05:52:51;;;;;;;20.95;12.07;;;3.70;99.90;;;;;;5054523;28;20507;-78
2024/03/29 05:55:17;;;;;;;34.47;11.50;;;3.80;99.90;;;;;;5056310;28;20070;-78
2024/03/29 05:57:44;;;;;;;28.25;12.18;;;3.70;99.90;;;;;;5056789;28;20102;-78
2024/03/29 06:00:15;;;;;;;33.70;11.75;;;3.70;99.90;;;;;;5039231;28;20049;-79
2024/03/29 06:02:42;;;;;;;29.23;13.10;;;3.70;99.90;;;;;;5039966;28;20067;-78
2024/03/29 06:05:09;;;;;;;18.38;11.27;;;3.70;99.90;;;;;;5056708;28;20048;-79
2024/03/29 06:07:35;;;;;;;46.38;13.07;;;3.70;99.90;;;;;;5040758;28;20424;-79
2024/03/29 06:10:04;;;;;;;20.40;12.98;;;3.60;99.90;;;;;;5040581;28;20131;-79
2024/03/29 06:12:34;;;;;;;25.65;12.93;;;3.60;99.90;;;;;;5051194;28;20049;-79
2024/03/29 06:17:45;;;;;;;26.85;16.45;;;3.60;99.90;;;;;;5055704;28;20381;-78
2024/03/29 06:20:12;;;;;;;18.77;11.65;;;3.60;99.90;;;;;;5054572;28;20055;-78
2024/03/29 06:22:38;;;;;;;17.08;12.32;;;3.60;99.90;;;;;;5039716;28;20056;-79
2024/03/29 06:25:04;;;;;;;15.90;11.85;;;3.60;99.90;;;;;;5039757;28;20083;-79
2024/03/29 06:27:32;;;;;;;13.63;11.32;;;3.60;99.90;;;;;;5039639;28;20049;-78
2024/03/29 06:29:58;;;;;;;15.80;11.30;;;3.70;99.90;;;;;;5039351;28;20464;-79
2024/03/29 06:32:24;;;;;;;13.18;10.90;;;3.80;99.90;;;;;;5059696;28;20049;-78
2024/03/29 06:34:50;;;;;;;15.68;11.18;;;3.90;99.90;;;;;;5055414;28;20392;-79
2024/03/29 06:37:15;;;;;;;14.35;10.43;;;4.00;99.90;;;;;;5039268;28;20188;-79
2024/03/29 06:39:43;;;;;;;12.95;10.20;;;4.10;99.90;;;;;;5087536;28;20057;-79
2024/03/29 06:42:12;;;;;;;17.13;9.43;;;4.30;99.90;;;;;;5055727;28;20049;-79
2024/03/29 06:44:37;;;;;;;10.63;8.63;;;4.40;99.90;;;;;;5039083;28;20052;-78
2024/03/29 06:47:04;;;;;;;9.95;7.63;;;4.50;99.90;;;;;;5039174;28;20067;-78
2024/03/29 06:49:32;;;;;;;9.38;7.78;;;4.70;99.90;;;;;;5056047;28;20064;-79
2024/03/29 06:52:01;;;;;;;8.35;6.95;;;4.90;99.90;;;;;;5080502;28;20060;-79
2024/03/29 06:54:32;;;;;;;10.32;7.90;;;5.00;99.90;;;;;;5039509;28;20079;-79
2024/03/29 06:56:58;;;;;;;8.88;6.63;;;5.20;99.90;;;;;;5055150;28;20044;-79
2024/03/29 06:59:27;;;;;;;7.35;6.30;;;5.40;99.90;;;;;;5055889;28;20052;-79
2024/03/29 07:01:54;;;;;;;6.50;5.80;;;5.60;99.90;;;;;;5046670;28;20052;-79
2024/03/29 07:04:27;;;;;;;8.15;5.05;;;5.70;99.90;;;;;;5055624;28;20048;-80
2024/03/29 07:06:54;;;;;;;7.30;5.00;;;6.00;99.90;;;;;;5038544;28;20052;-80
2024/03/29 07:09:21;;;;;;;11.77;5.15;;;6.20;99.90;;;;;;5043304;28;20049;-79
2024/03/29 07:11:48;;;;;;;7.97;5.30;;;6.40;99.90;;;;;;5038849;28;20048;-79
2024/03/29 07:14:15;;;;;;;9.55;5.32;;;6.50;99.90;;;;;;5055465;28;20060;-79
2024/03/29 07:16:42;;;;;;;10.10;5.68;;;6.70;99.90;;;;;;5038623;28;20053;-80
2024/03/29 07:19:07;;;;;;;9.90;4.82;;;6.80;99.90;;;;;;5031108;28;20426;-80
2024/03/29 07:21:33;;;;;;;7.05;4.72;;;7.00;99.90;;;;;;5025367;28;20052;-80
2024/03/29 07:23:59;;;;;;;6.25;4.68;;;7.10;99.90;;;;;;5042374;28;20064;-80
2024/03/29 07:26:25;;;;;;;8.10;4.35;;;7.20;99.90;;;;;;5038794;28;20531;-80
2024/03/29 07:28:51;;;;;;;10.43;4.40;;;7.30;99.90;;;;;;5037806;28;20056;-80
2024/03/29 07:31:17;;;;;;;5.32;4.20;;;7.40;99.90;;;;;;5061388;28;20084;-80
2024/03/29 07:33:43;;;;;;;14.65;4.60;;;7.50;99.90;;;;;;5038539;28;20124;-79
2024/03/29 07:36:12;;;;;;;6.43;4.20;;;7.70;99.90;;;;;;5038787;28;20048;-79
2024/03/29 07:38:38;;;;;;;5.38;3.10;;;7.90;99.90;;;;;;5038437;28;20048;-79
2024/03/29 07:41:09;;;;;;;4.25;2.58;;;8.00;99.90;;;;;;5037471;28;20111;-79
2024/03/29 07:43:56;;;;;;;7.55;2.63;;;8.20;99.90;;;;;;5052881;28;20059;-79
2024/03/29 07:46:22;;;;;;;4.70;2.55;;;8.40;99.90;;;;;;5053509;28;20057;-80
2024/03/29 07:48:51;;;;;;;4.25;2.60;;;8.60;98.70;;;;;;5038518;28;20048;-80
2024/03/29 07:51:22;;;;;;;3.42;2.00;;;8.80;98.70;;;;;;5035238;28;20052;-80
2024/03/29 07:53:48;;;;;;;2.53;1.48;;;9.00;98.50;;;;;;5035435;28;20053;-80
2024/03/29 07:56:14;;;;;;;1.90;1.38;;;9.20;98.10;;;;;;5054489;28;20063;-80
2024/03/29 07:58:39;;;;;;;2.65;1.23;;;9.40;97.70;;;;;;5063062;28;20481;-80
2024/03/29 08:01:05;;;;;;;7.40;1.60;;;9.60;98.30;;;;;;5054527;28;20079;-80
2024/03/29 08:03:35;;;;;;;2.50;1.23;;;9.80;97.00;;;;;;5037631;28;20114;-80
2024/03/29 08:06:05;;;;;;;2.00;1.60;;;10.00;95.20;;;;;;5035384;28;20052;-80
2024/03/29 08:08:35;;;;;;;2.85;1.45;;;10.20;94.90;;;;;;5037930;28;20059;-80
2024/03/29 08:11:01;;;;;;;3.78;1.70;;;10.40;94.30;;;;;;5038756;28;20064;-80
2024/03/29 08:13:27;;;;;;;3.28;1.42;;;10.60;92.70;;;;;;5038472;28;20555;-80
2024/03/29 08:16:00;;;;;;;5.10;1.40;;;10.80;92.60;;;;;;5038170;28;20056;-80
2024/03/29 08:18:27;;;;;;;3.55;1.38;;;11.00;90.80;;;;;;5051367;28;20048;-81
2024/03/29 08:20:55;;;;;;;7.53;1.45;;;11.10;88.90;;;;;;5038304;28;20083;-81
2024/03/29 08:23:22;;;;;;;2.80;1.40;;;11.30;87.10;;;;;;5037396;28;20369;-79
2024/03/29 08:25:51;;;;;;;3.17;1.30;;;11.50;86.10;;;;;;5042161;28;20404;-80
2024/03/29 08:28:21;;;;;;;5.78;2.60;;;11.60;82.70;;;;;;5041772;28;20060;-80
2024/03/29 08:31:00;;;;;;;4.72;1.60;;;11.80;83.70;;;;;;5058201;28;20045;-80
2024/03/29 08:33:26;;;;;;;4.85;1.50;;;12.00;85.90;;;;;;5049167;28;20052;-80
2024/03/29 08:35:52;;;;;;;1.98;1.25;;;12.10;82.00;;;;;;5042329;28;20698;-80
2024/03/29 08:38:21;;;;;;;3.65;1.00;;;12.30;82.10;;;;;;5040852;28;20082;-81
2024/03/29 08:40:48;;;;;;;5.22;1.15;;;12.50;80.60;;;;;;5058292;28;20068;-80
2024/03/29 08:43:20;;;;;;;4.55;1.20;;;12.70;82.40;;;;;;5058274;28;20060;-81
2024/03/29 08:45:49;;;;;;;1.75;1.10;;;12.90;81.40;;;;;;5040929;28;20465;-80
2024/03/29 08:48:17;;;;;;;1.65;0.90;;;13.20;80.50;;;;;;5039413;28;20099;-80
2024/03/29 08:50:43;;;;;;;2.17;1.05;;;13.40;77.90;;;;;;5039131;28;20086;-80
2024/03/29 08:53:09;;;;;;;4.55;1.42;;;13.60;78.80;;;;;;5040899;28;20049;-80
2024/03/29 08:55:39;;;;;;;5.50;1.85;;;13.80;75.00;;;;;;5057861;28;20052;-80
2024/03/29 08:58:05;;;;;;;4.93;1.98;;;14.00;75.20;;;;;;5058272;28;20118;-81
2024/03/29 09:00:31;;;;;;;6.50;2.25;;;14.20;74.30;;;;;;5038353;28;20045;-80
2024/03/29 09:02:57;;;;;;;3.50;1.27;;;14.50;74.40;;;;;;5038671;28;20044;-81
2024/03/29 09:05:27;;;;;;;4.15;1.40;;;14.70;72.90;;;;;;5040971;28;20067;-81
2024/03/29 09:07:53;;;;;;;2.03;1.13;;;15.00;70.40;;;;;;5037926;28;20103;-81
2024/03/29 09:10:22;;;;;;;5.25;1.30;;;15.30;74.10;;;;;;5070158;28;20366;-81
2024/03/29 09:12:50;;;;;;;4.40;1.30;;;15.50;70.50;;;;;;5039753;28;20044;-81
2024/03/29 09:15:17;;;;;;;4.45;1.30;;;15.80;69.20;;;;;;5057149;28;20397;-81
2024/03/29 09:17:43;;;;;;;3.10;1.40;;;16.10;70.80;;;;;;5036716;28;20049;-81
2024/03/29 09:20:11;;;;;;;4.55;1.05;;;16.40;67.30;;;;;;5038166;28;20128;-81
2024/03/29 09:22:37;;;;;;;2.40;1.10;;;16.70;69.40;;;;;;5058038;28;20107;-82
2024/03/29 09:25:04;;;;;;;3.38;0.65;;;16.90;61.80;;;;;;5040739;28;20044;-82
2024/03/29 09:27:33;;;;;;;1.90;1.00;;;17.20;64.60;;;;;;5040718;28;20377;-80
2024/03/29 09:29:59;;;;;;;2.47;1.08;;;17.50;62.00;;;;;;5056636;28;20154;-81
2024/03/29 09:32:25;;;;;;;2.97;0.90;;;17.70;60.70;;;;;;5036226;28;20087;-81
2024/03/29 09:34:51;;;;;;;2.50;0.80;;;18.00;61.80;;;;;;5048450;28;20489;-81
2024/03/29 09:37:17;;;;;;;0.70;0.60;;;18.20;60.90;;;;;;5027441;28;20061;-82
2024/03/29 09:39:44;;;;;;;2.28;0.90;;;18.40;59.00;;;;;;5036960;28;20099;-81
2024/03/29 09:42:15;;;;;;;1.02;0.63;;;18.60;58.70;;;;;;5017428;28;20052;-82
2024/03/29 09:44:43;;;;;;;1.70;0.80;;;18.80;57.00;;;;;;5019682;28;20092;-82
2024/03/29 09:47:15;;;;;;;1.52;0.70;;;19.00;56.90;;;;;;5020445;28;20445;-82
2024/03/29 09:49:44;;;;;;;4.75;0.75;;;19.10;56.50;;;;;;5020618;28;20389;-81
2024/03/29 09:52:11;;;;;;;3.90;0.80;;;19.20;56.60;;;;;;5036870;28;20060;-81
2024/03/29 09:54:38;;;;;;;3.05;0.80;;;19.50;58.10;;;;;;5021032;28;20063;-81
2024/03/29 09:57:07;;;;;;;3.92;0.95;;;19.70;55.80;;;;;;5038806;28;20061;-82
2024/03/29 09:59:34;;;;;;;2.42;0.85;;;20.00;56.60;;;;;;5037268;28;20064;-80
2024/03/29 10:02:10;;;;;;;3.80;0.90;;;20.30;55.30;;;;;;5019940;28;20122;-80
2024/03/29 10:04:37;;;;;;;5.20;1.17;;;20.70;53.80;;;;;;5030155;28;20076;-79
2024/03/29 10:07:04;;;;;;;1.85;1.20;;;20.90;52.70;;;;;;5038667;28;20438;-79
2024/03/29 10:09:32;;;;;;;3.72;0.80;;;21.10;52.70;;;;;;5036240;28;20053;-80
2024/03/29 10:11:58;;;;;;;1.95;0.80;;;21.20;51.50;;;;;;5044217;28;20128;-80
2024/03/29 10:14:27;;;;;;;3.78;0.70;;;21.40;51.60;;;;;;5019087;28;20557;-81
2024/03/29 10:16:52;;;;;;;1.58;0.70;;;21.40;51.60;;;;;;5036218;28;20041;-81
2024/03/29 10:19:21;;;;;;;2.63;0.77;;;21.60;51.50;;;;;;5019880;28;20132;-80
2024/03/29 10:21:47;;;;;;;1.83;0.70;;;21.60;51.90;;;;;;5062086;28;20358;-80
2024/03/29 10:24:14;;;;;;;2.97;1.10;;;21.70;51.30;;;;;;5036498;28;20099;-80
2024/03/29 10:26:42;;;;;;;1.85;0.70;;;21.80;50.50;;;;;;5033851;28;20057;-80
2024/03/29 10:29:08;;;;;;;3.15;0.80;;;21.80;49.70;;;;;;5036377;28;20060;-80
2024/03/29 10:31:37;;;;;;;2.17;0.70;;;21.60;49.60;;;;;;5019889;28;20060;-80
2024/03/29 10:34:08;;;;;;;2.25;0.93;;;21.50;50.10;;;;;;5020630;28;20466;-80
2024/03/29 10:36:39;;;;;;;1.52;0.70;;;21.40;50.50;;;;;;5036837;28;20473;-80
2024/03/29 10:39:11;;;;;;;1.42;0.70;;;21.30;50.90;;;;;;5054307;28;20060;-80
2024/03/29 10:41:43;;;;;;;3.00;0.98;;;21.20;50.80;;;;;;5039609;28;20056;-80
2024/03/29 10:44:12;;;;;;;2.30;0.50;;;21.20;51.20;;;;;;5039477;28;20056;-81
2024/03/29 10:46:39;;;;;;;2.15;0.73;;;21.10;50.60;;;;;;5038966;28;20071;-80
2024/03/29 10:49:11;;;;;;;3.05;0.80;;;21.10;50.90;;;;;;5055946;28;20052;-81
2024/03/29 10:51:39;;;;;;;1.45;0.70;;;21.10;51.00;;;;;;5036063;28;20049;-80
2024/03/29 10:54:08;;;;;;;3.42;1.00;;;21.10;50.60;;;;;;5039726;28;20052;-80
2024/03/29 10:56:36;;;;;;;2.45;0.68;;;21.20;51.10;;;;;;5039472;28;20098;-80
2024/03/29 10:59:11;;;;;;;1.42;0.65;;;21.20;51.80;;;;;;5039796;28;20060;-80
2024/03/29 11:01:41;;;;;;;1.75;0.77;;;21.30;51.10;;;;;;5039288;28;20056;-80
2024/03/29 11:04:16;;;;;;;3.20;0.70;;;21.30;51.30;;;;;;5050487;28;20052;-80
2024/03/29 11:06:43;;;;;;;9.70;1.10;;;21.40;51.20;;;;;;5055903;28;20060;-81
2024/03/29 11:09:13;;;;;;;3.63;0.73;;;21.40;51.50;;;;;;5039512;28;20056;-80
2024/03/29 11:11:44;;;;;;;8.02;1.30;;;21.40;51.20;;;;;;5039154;28;20049;-80
2024/03/29 11:14:15;;;;;;;4.63;1.08;;;21.40;51.50;;;;;;5068836;28;20079;-80
2024/03/29 11:16:45;;;;;;;3.50;1.00;;;21.40;51.70;;;;;;5038907;28;20428;-80
2024/03/29 11:19:14;;;;;;;1.40;0.73;;;21.40;51.30;;;;;;5055425;28;20465;-81
2024/03/29 11:21:42;;;;;;;3.20;0.82;;;21.50;51.90;;;;;;5082244;28;20069;-81
2024/03/29 11:24:10;;;;;;;2.08;0.98;;;21.50;52.00;;;;;;5030305;28;20392;-81
2024/03/29 11:26:36;;;;;;;6.93;1.23;;;21.60;52.20;;;;;;5038741;28;20439;-80
2024/03/29 11:29:04;;;;;;;3.60;1.00;;;21.60;52.20;;;;;;5038653;28;20056;-80
2024/03/29 11:31:38;;;;;;;5.78;1.00;;;21.70;52.20;;;;;;5038387;28;20056;-82
2024/03/29 11:34:09;;;;;;;;;;;21.70;51.40;;;;;;5054539;28;20071;-80
2024/03/29 11:36:35;;;;;;;4.28;1.13;;;21.80;52.30;;;;;;5038428;28;19927;-82
2024/03/29 11:39:01;;;;;;;3.38;0.75;;;22.00;52.80;;;;;;5038520;28;20049;-81
2024/03/29 11:41:29;;;;;;;6.80;1.23;;;22.30;52.00;;;;;;5037919;28;20060;-80
2024/03/29 11:43:55;;;;;;;7.22;1.17;;;22.70;52.40;;;;;;5038323;28;20707;-82
2024/03/29 11:46:22;;;;;;;4.32;1.42;;;23.50;53.40;;;;;;5038528;28;20052;-81
2024/03/29 11:48:51;;;;;;;13.52;2.10;;;24.60;50.20;;;;;;5037968;28;20501;-81
2024/03/29 11:51:21;;;;;;;7.80;1.00;;;25.40;47.40;;;;;;5038112;28;20064;-82
2024/03/29 11:53:50;;;;;;;4.82;1.00;;;26.10;47.00;;;;;;5054098;28;20515;-80
2024/03/29 11:56:19;;;;;;;5.70;1.02;;;26.80;45.30;;;;;;5054670;28;20062;-82
2024/03/29 11:58:49;;;;;;;12.23;1.30;;;27.50;42.40;;;;;;5036480;28;20040;-81
2024/03/29 12:01:18;;;;;;;17.63;1.40;;;27.60;40.60;;;;;;5034541;28;20056;-82
2024/03/29 12:03:44;;;;;;;7.28;1.27;;;27.30;41.80;;;;;;5037998;28;20061;-82
2024/03/29 12:06:10;;;;;;;2.00;0.77;;;27.30;41.90;;;;;;5037623;28;20075;-82
2024/03/29 12:08:39;;;;;;;4.90;1.00;;;27.30;42.50;;;;;;5053145;28;20055;-81
2024/03/29 12:11:06;;;;;;;2.13;0.90;;;27.40;43.10;;;;;;5080446;28;20052;-82
2024/03/29 12:13:32;;;;;;;10.98;1.65;;;27.80;44.10;;;;;;5037473;28;20118;-82
2024/03/29 12:16:00;;;;;;;5.03;1.17;;;28.40;42.10;;;;;;5085030;28;20056;-82
2024/03/29 12:18:27;;;;;;;4.28;0.95;;;29.30;41.50;;;;;;5037890;28;20048;-82
2024/03/29 12:20:55;;;;;;;2.88;0.93;;;30.10;39.80;;;;;;5037883;28;20060;-82
2024/03/29 12:23:22;;;;;;;4.60;1.40;;;30.80;38.50;;;;;;5038355;28;20049;-82
2024/03/29 12:25:50;;;;;;;4.57;1.17;;;31.30;37.10;;;;;;5037996;28;20555;-82
2024/03/29 12:28:18;;;;;;;4.55;1.27;;;31.50;35.90;;;;;;5054439;28;20061;-82
2024/03/29 12:30:46;;;;;;;3.03;0.88;;;31.60;34.70;;;;;;5037974;28;20075;-82
2024/03/29 12:33:19;;;;;;;4.80;1.08;;;31.50;35.70;;;;;;5037170;28;20044;-81
2024/03/29 12:35:50;;;;;;;4.82;1.00;;;31.80;34.70;;;;;;5064453;28;20465;-82
2024/03/29 12:38:20;;;;;;;16.73;1.55;;;32.00;34.50;;;;;;5037146;28;20060;-82
2024/03/29 12:40:47;;;;;;;3.60;1.10;;;32.30;34.50;;;;;;5037783;28;20350;-82
2024/03/29 12:43:17;;;;;;;11.80;1.52;;;32.80;34.40;;;;;;5035988;28;20067;-82
2024/03/29 12:45:43;;;;;;;5.80;0.90;;;33.50;32.70;;;;;;5035588;28;20052;-83
2024/03/29 12:48:20;;;;;;;7.43;0.90;;;34.10;32.20;;;;;;5037575;28;20116;-81
2024/03/29 12:50:47;;;;;;;9.75;1.17;;;34.90;30.00;;;;;;5052060;28;20068;-81
2024/03/29 12:53:15;;;;;;;9.38;0.90;;;35.40;30.00;;;;;;5037033;28;20053;-82
2024/03/29 12:55:46;;;;;;;14.50;1.00;;;36.00;29.80;;;;;;5051724;28;20053;-82
2024/03/29 12:58:13;;;;;;;4.05;0.90;;;36.40;28.90;;;;;;5037279;28;20052;-82